Portada
METAR-TAF:

METAR-TAF

Aeroports :

Ottawa, Ontàrio, Canadà

latitud: 45-19N, longitud: 075-40W, altitud: 116 m

Observació

L'informe es va fer fa 40 minuts, a les 06:00 UTC
Vent 5 kt del Sud-Oest
Temperatura 5°C
Humitat 93%
Pressió 1009 hPa
Visibilitat: 24.1 km
Cel clar

METAR: CYOW 270600Z 22005KT 15SM SKC 05/04 A2979 RMK SLP093

Hora: 02:40 (06:40 UTC)

Pronòstic

L'informe es va fer fa 1 hora i 2 minuts, a les 05:38 UTC
Pronòstic vàlid del 27 a les 06 UTC al 28 a les 06 UTC
Vent 5 kt del Sud
Visibilitat: 10 km
Núvols disperses a una alçada de 24000 ft
Probabilitat 30%
l' 27 a les 09 UTC al 27 a les 12 UTC
Visibilitat: 1.2 km
boirina
A partir de les 27 a les 1800 UTC
Vent 8 kt del Sud
Visibilitat: 10 km
Cel ennuvolat a una alçada de 20000 ft
Evolucionant progressivament
l' 27 a les 23 UTC al 28 a les 01 UTC
Vent 3 kt amb direcció variable

TAF: CYOW 270538Z 2706/2806 18005KT P6SM SCT240 PROB30 2709/2712 3/4SM BR FM271800 18008KT P6SM BKN200 BECMG 2723/2801 VRB03KT RMK NXT FCST BY 270900Z

Observacions i pronòstics meteorològics de més de 4000 aeroports (METAR i TAF).

Les estacions disponibles són els punts grocs i vermells al mapa.

Posi el ratolí al punt desitjat per veure el nom de l'estació.

Feu clic per veure les observacions i els pronòstics meteorològics.

Per canviar el mapa: feu clic els botons verds amb una creu de color negre per apropar; al botó verd amb un guió per allunyar la imatge; o en les fletxes verdes per a mapes adjacents.


METAR-TAF: